Nearby METAR Reports

EGNX - East Midlands, United Kingdom
Distance: S 18mi, 28km
Updated: 17/09/2019 09:20
Clear
Clear
 Wind from W
Wind: W 7 mph , 11 km/h
Temperature: 11°C
Dew Point: 8°C
Humidity: 82%
Barometer: 1025 hPa
Summary: Clear
Visibility: greater than 7 miles , 10 km
2019/09/17 08:20 EGNX 170820Z 28006KT CAVOK 11/08 Q1025
EGCN - Doncaster Sheffi, United Kingdom
Distance: NNE 31mi, 50km
Updated: 17/09/2019 09:20
Clear
Clear
 Wind from NW
Wind: NW 13 mph , 20 km/h
Temperature: 13°C
Dew Point: 7°C
Humidity: 67%
Barometer: 1026 hPa
Summary: Clear
Visibility: greater than 7 miles , 10 km
2019/09/17 08:20 EGCN 170820Z 31011KT CAVOK 13/07 Q1026
EGYE - Barkston Heath R, United Kingdom
Distance: ESE 31mi, 50km
Updated: 17/09/2019 08:50
Clear
Clear
 Wind from WNW
Wind: WNW 12 mph , 19 km/h
Barometer: 1025 hPa
Summary: Clear
Visibility: greater than 7 miles , 10 km
2019/09/17 07:50 EGYE 170750Z 29010KT CAVOK ///// Q1025 RMK BLU
 
EGXW - Waddington Raf, United Kingdom
Distance: ENE 33mi, 53km
Updated: 17/09/2019 09:21
Clear
Clear
 Wind from WNW
Wind: WNW 7 mph , 11 km/h
Temperature: 10°C
Wind Chill: 8°C
Dew Point: 7°C
Humidity: 82%
Barometer: 1025 hPa
Summary: Clear
Visibility: greater than 7 miles , 10 km
2019/09/17 08:21 EGXW 170821Z 29006KT CAVOK 10/07 Q1025 NOSIG RMK BLU BLU
EGYD - Cranwell Raf, United Kingdom
Distance: E 33mi, 53km
Updated: 17/09/2019 09:20
Clear
Clear
 Wind from NW
Wind: NW 10 mph , 17 km/h
Temperature: 11°C
Dew Point: 7°C
Humidity: 77%
Barometer: 1025 hPa
Summary: Clear
Visibility: greater than 7 miles , 10 km
2019/09/17 08:20 EGYD 170820Z 31009KT CAVOK 11/07 Q1025 NOSIG RMK BLU BLU
EGXP - Scampton Raf, United Kingdom
Distance: ENE 35mi, 56km
Updated: 17/09/2019 08:50
Clear
Clear
 Wind from WNW
Wind: WNW 7 mph , 11 km/h
Temperature: 9°C
Wind Chill: 7°C
Dew Point: 8°C
Humidity: 94%
Barometer: 1024 hPa
Summary: Clear
Visibility: greater than 7 miles , 10 km
2019/09/17 07:50 EGXP 170750Z 30006KT CAVOK 09/08 Q1024 RMK BLU
 
EGCC - Manchester Intl, United Kingdom
Distance: WNW 45mi, 72km
Updated: 17/09/2019 09:20
Clear
Clear
 Wind from NNW
Wind: NNW 6 mph , 9 km/h
Temperature: 13°C
Dew Point: 9°C
Humidity: 77%
Barometer: 1026 hPa
Clouds: Clear
Visibility: 6 miles , 10 km
2019/09/17 08:20 EGCC 170820Z AUTO 33005KT 9999 NCD 13/09 Q1026
EGBB - Birmingham Airpo, United Kingdom
Distance: SSW 46mi, 74km
Updated: 17/09/2019 09:20
Few Clouds
Few Clouds
 Wind from NW
Wind: NW 8 mph , 13 km/h
Temperature: 13°C
Dew Point: 8°C
Humidity: 72%
Barometer: 1026 hPa
Clouds: Few Clouds
Visibility: 6 miles , 10 km
Cloud details: Few Clouds 1006 m
2019/09/17 08:20 EGBB 170820Z 32007KT 9999 FEW033 13/08 Q1026
EGXC - Coningsby Raf, United Kingdom
Distance: E 47mi, 75km
Updated: 17/09/2019 09:20
Clear
Clear
 Wind from NW
Wind: NW 9 mph , 15 km/h
Temperature: 11°C
Dew Point: 8°C
Humidity: 82%
Barometer: 1024 hPa
Summary: Clear
Visibility: greater than 7 miles , 10 km
2019/09/17 08:20 EGXC 170820Z 31008KT CAVOK 11/08 Q1024 NOSIG RMK BLU BLU
 
EGXT - Wittering Raf, United Kingdom
Distance: SE 47mi, 75km
Updated: 17/09/2019 08:50
Clear
Clear
 Wind from NW
Wind: NW 10 mph , 17 km/h
Temperature: 11°C
Dew Point: 8°C
Humidity: 82%
Barometer: 1024 hPa
Summary: Clear
Visibility: greater than 7 miles , 10 km
2019/09/17 07:50 EGXT 170750Z 31009KT CAVOK 11/08 Q1024 RMK BLU
EGNJ - Humberside, United Kingdom
Distance: NE 52mi, 83km
Updated: 17/09/2019 09:20
Clear
Clear
 Wind from NW
Wind: NW 14 mph , 22 km/h
Temperature: 12°C
Dew Point: 8°C
Humidity: 77%
Barometer: 1024 hPa
Summary: Clear
Visibility: greater than 7 miles , 10 km
2019/09/17 08:20 EGNJ 170820Z 31012KT CAVOK 12/08 Q1024
EGWC - Cosford Raf, United Kingdom
Distance: SW 52mi, 83km
Updated: 17/09/2019 08:50
Few Clouds
Few Clouds
 Wind from NW
Wind: NW 7 mph , 11 km/h
Temperature: 11°C
Dew Point: 8°C
Humidity: 82%
Barometer: 1026 hPa
Clouds: Few Clouds
Visibility: 6 miles , 10 km
Cloud details: Few Clouds 914 m
2019/09/17 07:50 EGWC 170750Z 31006KT 9999 FEW030 11/08 Q1026 RMK BLU
 
EGNM - Leeds And Bradfo, United Kingdom
Distance: NNW 57mi, 91km
Updated: 17/09/2019 09:20
Clear
Clear
 Wind from WNW
Wind: WNW 9 mph , 15 km/h
Temperature: 11°C
Dew Point: 7°C
Humidity: 77%
Barometer: 1025 hPa
Summary: Clear
Visibility: greater than 7 miles , 10 km
2019/09/17 08:20 EGNM 170820Z 29008KT CAVOK 11/07 Q1025
EGOS - Shawbury Raf, United Kingdom
Distance: WSW 60mi, 97km
Updated: 17/09/2019 09:20
Mostly cloudy
Mostly cloudy
 Wind from NW
Wind: NW 6 mph , 9 km/h
Temperature: 12°C
Dew Point: 9°C
Humidity: 82%
Barometer: 1026 hPa
Clouds: Mostly cloudy
Visibility: 6 miles , 10 km
Cloud details: Few Clouds 610 m
Mostly cloudy 1067 m
2019/09/17 08:20 EGOS 170820Z 31005KT 9999 FEW020 BKN035 12/09 Q1026 NOSIG RMK BLU BLU
EGYH - Holbeach (aut), United Kingdom
Distance: ESE 62mi, 99km
Updated: 17/09/2019 08:50
Clear
Clear
 Wind from NNW
Wind: NNW 15 mph , 24 km/h
Temperature: 11°C
Dew Point: 9°C
Humidity: 88%
Barometer: 1024 hPa
Summary: Clear
Visibility: greater than 7 miles , 10 km
2019/09/17 07:50 EGYH 170750Z 33013KT CAVOK 11/09 Q1024 RMK BLU
 
EGXV - Leconfield (aut), United Kingdom
Distance: NNE 65mi, 105km
Updated: 17/09/2019 08:50
Clear
Clear
 Wind from WNW
Wind: WNW 9 mph , 15 km/h
Temperature: 11°C
Dew Point: 7°C
Humidity: 77%
Barometer: 1024 hPa
Clouds: Clear
Visibility: 6 miles , 10 km
2019/09/17 07:50 EGXV 170750Z AUTO 29008KT 9999 NCD 11/07 Q1024
EGXS - Donna Nook Raf, United Kingdom
Distance: ENE 66mi, 106km
Updated: 14/09/2019 05:50
NOT Current
Clear
Clear
 Wind from S
Wind: S 8 mph , 13 km/h
Temperature: 9°C
Wind Chill: 7°C
Dew Point: 7°C
Humidity: 87%
Barometer: 1034 hPa
Clouds: Clear
Visibility: 6 miles , 10 km
2019/09/14 04:50 EGXS 140450Z AUTO 19007KT 9999 // NCD 09/07 Q1034
EGGP - Liverpool Airpor, United Kingdom
Distance: WNW 67mi, 107km
Updated: 17/09/2019 09:20
Mostly cloudy
Mostly cloudy
 Wind from N
Wind: N 6 mph , 9 km/h
Temperature: 14°C
Dew Point: 10°C
Humidity: 77%
Barometer: 1026 hPa
Clouds: Mostly cloudy
Visibility: 6 miles , 10 km
Cloud details: Few Clouds 914 m
Mostly cloudy 1158 m
2019/09/17 08:20 EGGP 170820Z 36005KT 320V040 9999 FEW030 BKN038 14/10 Q1026
 
EGXU - Linton-On-Ouse R, United Kingdom
Distance: N 68mi, 109km
Updated: 17/09/2019 08:50
Clear
Clear
 Wind from SE
Wind: SE 1 mph , 2 km/h
Temperature: 10°C
Dew Point: 7°C
Humidity: 82%
Barometer: 1024 hPa
Clouds: Clear
Visibility: 6 miles , 10 km
2019/09/17 07:50 EGXU 170750Z AUTO 14001KT 9999 // NCD 10/07 Q1024
EGNR - Hawarden (aut), United Kingdom
Distance: W 70mi, 112km
Updated: 17/09/2019 09:20
Partly cloudy
Partly cloudy
 Wind from NW
Wind: NW 9 mph , 15 km/h
Temperature: 14°C
Dew Point: 9°C
Humidity: 72%
Barometer: 1027 hPa
Clouds: Partly cloudy
Visibility: 6 miles , 10 km
Cloud details: Few Clouds 732 m
Partly cloudy 1158 m
2019/09/17 08:20 EGNR 170820Z 32008KT 9999 FEW024 SCT038 14/09 Q1027